Terminal Aerodrome Forecast
Issued by NWS

Home | Current Version | Previous Version | Text Only | Print | Product List | Glossary On
Versions: 1 2 3 4 5 6 7 8 9 10 11 12 13 14 15 16 17 18 19 20 21 22 23 24 25 26 27 28 29 30 31 32 33 34 35 36 37 38 39 40 41 42 43 44 45 46
000
FTUS44 KHGX 192101 AAA
TAFLBX
TAF AMD
KLBX 192101Z 1921/2018 01014KT P6SM -RA BKN007 OVC011
      TEMPO 1921/1923 SCT015 BKN020
     FM192300 03012KT P6SM VCSH BKN007 OVC015
     FM200300 36008KT P6SM OVC007=

USA.gov is the U.S. government's official web portal to all federal, state and local government web resources and services.